sensor_id;sensor_type;location;lat;lon;timestamp;pressure;altitude;pressure_sealevel;temperature;humidity
82746;BME280;72484;50.004;14.356;2024-03-06T00:00:41;98033.52;;;9.42;69.74
82746;BME280;72484;50.004;14.356;2024-03-06T00:04:01;98035.51;;;9.33;69.62
82746;BME280;72484;50.004;14.356;2024-03-06T00:08:01;98033.10;;;9.31;69.89
82746;BME280;72484;50.004;14.356;2024-03-06T00:12:01;98035.02;;;9.35;70.31
82746;BME280;72484;50.004;14.356;2024-03-06T00:16:01;98029.61;;;9.32;70.95
82746;BME280;72484;50.004;14.356;2024-03-06T00:20:17;98025.94;;;9.24;71.15
82746;BME280;72484;50.004;14.356;2024-03-06T00:23:37;98035.82;;;9.11;71.01
82746;BME280;72484;50.004;14.356;2024-03-06T00:27:54;98035.57;;;9.03;70.86
82746;BME280;72484;50.004;14.356;2024-03-06T00:31:31;98040.73;;;8.95;70.90
82746;BME280;72484;50.004;14.356;2024-03-06T00:34:52;98049.33;;;8.92;70.91
82746;BME280;72484;50.004;14.356;2024-03-06T00:38:52;98055.51;;;8.85;71.03
82746;BME280;72484;50.004;14.356;2024-03-06T00:42:52;98055.11;;;8.81;71.66
82746;BME280;72484;50.004;14.356;2024-03-06T00:47:07;98056.55;;;8.82;71.74
82746;BME280;72484;50.004;14.356;2024-03-06T00:50:47;98055.44;;;8.86;71.69
82746;BME280;72484;50.004;14.356;2024-03-06T00:54:08;98059.41;;;8.82;71.48
82746;BME280;72484;50.004;14.356;2024-03-06T00:58:25;98058.09;;;8.67;72.27
82746;BME280;72484;50.004;14.356;2024-03-06T01:02:04;98061.92;;;8.68;73.12
82746;BME280;72484;50.004;14.356;2024-03-06T01:05:40;98057.50;;;8.76;73.03
82746;BME280;72484;50.004;14.356;2024-03-06T01:09:01;98055.27;;;8.80;72.75
82746;BME280;72484;50.004;14.356;2024-03-06T01:13:19;98051.85;;;8.86;72.59
82746;BME280;72484;50.004;14.356;2024-03-06T01:16:39;98057.42;;;8.83;72.84
82746;BME280;72484;50.004;14.356;2024-03-06T01:20:56;98058.30;;;8.87;73.13
82746;BME280;72484;50.004;14.356;2024-03-06T01:24:17;98061.58;;;8.86;73.17
82746;BME280;72484;50.004;14.356;2024-03-06T01:28:35;98062.91;;;8.87;73.00
82746;BME280;72484;50.004;14.356;2024-03-06T01:31:57;98069.77;;;8.83;72.94
82746;BME280;72484;50.004;14.356;2024-03-06T01:35:57;98073.58;;;8.80;72.96
82746;BME280;72484;50.004;14.356;2024-03-06T01:40:15;98077.79;;;8.78;73.26
82746;BME280;72484;50.004;14.356;2024-03-06T01:43:38;98074.75;;;8.77;73.29
82746;BME280;72484;50.004;14.356;2024-03-06T01:47:55;98074.27;;;8.76;73.76
82746;BME280;72484;50.004;14.356;2024-03-06T01:51:15;98077.54;;;8.74;73.61
82746;BME280;72484;50.004;14.356;2024-03-06T01:55:16;98076.90;;;8.74;73.71
82746;BME280;72484;50.004;14.356;2024-03-06T01:59:16;98076.56;;;8.70;73.69
82746;BME280;72484;50.004;14.356;2024-03-06T02:03:35;98078.48;;;8.70;74.07
82746;BME280;72484;50.004;14.356;2024-03-06T02:07:14;98079.81;;;8.63;74.12
82746;BME280;72484;50.004;14.356;2024-03-06T02:10:50;98080.36;;;8.59;74.34
82746;BME280;72484;50.004;14.356;2024-03-06T02:14:12;98078.03;;;8.56;74.42
82746;BME280;72484;50.004;14.356;2024-03-06T02:18:14;98078.98;;;8.52;74.40
82746;BME280;72484;50.004;14.356;2024-03-06T02:22:30;98081.52;;;8.50;74.75
82746;BME280;72484;50.004;14.356;2024-03-06T02:26:08;98081.11;;;8.48;74.54
82746;BME280;72484;50.004;14.356;2024-03-06T02:29:46;98084.90;;;8.40;74.91
82746;BME280;72484;50.004;14.356;2024-03-06T02:33:06;98083.23;;;8.39;74.79
82746;BME280;72484;50.004;14.356;2024-03-06T02:37:06;98086.77;;;8.38;74.78
82746;BME280;72484;50.004;14.356;2024-03-06T02:41:22;98086.32;;;8.42;74.63
82746;BME280;72484;50.004;14.356;2024-03-06T02:45:01;98091.24;;;8.38;74.14
82746;BME280;72484;50.004;14.356;2024-03-06T02:48:38;98096.20;;;8.31;74.39
82746;BME280;72484;50.004;14.356;2024-03-06T02:51:59;98104.75;;;8.23;74.31
82746;BME280;72484;50.004;14.356;2024-03-06T02:56:19;98104.90;;;8.22;74.19
82746;BME280;72484;50.004;14.356;2024-03-06T02:59:56;98103.27;;;8.17;74.24
82746;BME280;72484;50.004;14.356;2024-03-06T03:03:16;98102.69;;;8.12;74.04
82746;BME280;72484;50.004;14.356;2024-03-06T03:07:17;98110.61;;;8.06;74.13
82746;BME280;72484;50.004;14.356;2024-03-06T03:11:35;98114.20;;;8.07;74.13
82746;BME280;72484;50.004;14.356;2024-03-06T03:15:12;98115.90;;;8.02;74.05
82746;BME280;72484;50.004;14.356;2024-03-06T03:18:33;98117.17;;;8.01;74.21
82746;BME280;72484;50.004;14.356;2024-03-06T03:22:34;98117.27;;;8.06;74.08
82746;BME280;72484;50.004;14.356;2024-03-06T03:26:51;98117.45;;;8.09;73.89
82746;BME280;72484;50.004;14.356;2024-03-06T03:30:28;98122.16;;;8.13;73.62
82746;BME280;72484;50.004;14.356;2024-03-06T03:33:49;98120.33;;;8.11;73.76
82746;BME280;72484;50.004;14.356;2024-03-06T03:38:06;98122.83;;;8.17;73.36
82746;BME280;72484;50.004;14.356;2024-03-06T03:41:46;98133.48;;;8.16;73.28
82746;BME280;72484;50.004;14.356;2024-03-06T03:45:06;98129.98;;;8.16;73.02
82746;BME280;72484;50.004;14.356;2024-03-06T03:49:07;98128.39;;;8.16;73.01
82746;BME280;72484;50.004;14.356;2024-03-06T03:53:27;98130.33;;;8.21;72.77
82746;BME280;72484;50.004;14.356;2024-03-06T03:56:45;98127.37;;;8.19;72.64
82746;BME280;72484;50.004;14.356;2024-03-06T04:00:46;98130.98;;;8.21;72.50
82746;BME280;72484;50.004;14.356;2024-03-06T04:04:50;98138.80;;;8.26;72.90
82746;BME280;72484;50.004;14.356;2024-03-06T04:09:07;98137.48;;;8.33;72.70
82746;BME280;72484;50.004;14.356;2024-03-06T04:12:27;98137.09;;;8.33;72.58
82746;BME280;72484;50.004;14.356;2024-03-06T04:16:27;98136.77;;;8.21;72.19
82746;BME280;72484;50.004;14.356;2024-03-06T04:20:46;98138.25;;;8.16;72.75
82746;BME280;72484;50.004;14.356;2024-03-06T04:24:07;98136.08;;;8.12;72.40
82746;BME280;72484;50.004;14.356;2024-03-06T04:28:07;98137.82;;;8.00;72.78
82746;BME280;72484;50.004;14.356;2024-03-06T04:32:07;98138.45;;;7.98;72.81
82746;BME280;72484;50.004;14.356;2024-03-06T04:36:24;98136.59;;;7.94;73.19
82746;BME280;72484;50.004;14.356;2024-03-06T04:39:45;98137.10;;;7.87;73.65
82746;BME280;72484;50.004;14.356;2024-03-06T04:43:44;98147.15;;;7.93;73.86
82746;BME280;72484;50.004;14.356;2024-03-06T04:48:00;98148.16;;;8.01;73.58
82746;BME280;72484;50.004;14.356;2024-03-06T04:51:39;98149.83;;;8.00;73.26
82746;BME280;72484;50.004;14.356;2024-03-06T04:55:00;98151.05;;;7.92;73.55
82746;BME280;72484;50.004;14.356;2024-03-06T04:59:17;98155.16;;;8.01;73.70
82746;BME280;72484;50.004;14.356;2024-03-06T05:02:39;98150.95;;;8.02;73.77
82746;BME280;72484;50.004;14.356;2024-03-06T05:06:40;98150.50;;;8.05;73.64
82746;BME280;72484;50.004;14.356;2024-03-06T05:10:40;98154.05;;;8.09;73.71
82746;BME280;72484;50.004;14.356;2024-03-06T05:14:40;98158.30;;;8.08;73.81
82746;BME280;72484;50.004;14.356;2024-03-06T05:18:58;98159.04;;;8.10;74.16
82746;BME280;72484;50.004;14.356;2024-03-06T05:22:36;98160.31;;;8.13;74.28
82746;BME280;72484;50.004;14.356;2024-03-06T05:25:56;98162.71;;;8.13;73.98
82746;BME280;72484;50.004;14.356;2024-03-06T05:30:14;98164.28;;;8.09;74.12
82746;BME280;72484;50.004;14.356;2024-03-06T05:33:49;98169.36;;;8.10;73.86
82746;BME280;72484;50.004;14.356;2024-03-06T05:37:10;98172.05;;;8.05;74.19
82746;BME280;72484;50.004;14.356;2024-03-06T05:41:10;98177.55;;;8.08;74.46
82746;BME280;72484;50.004;14.356;2024-03-06T05:45:27;98177.16;;;8.09;74.24
82746;BME280;72484;50.004;14.356;2024-03-06T05:48:47;98190.20;;;8.09;74.93
82746;BME280;72484;50.004;14.356;2024-03-06T05:53:05;98185.71;;;8.16;75.15
82746;BME280;72484;50.004;14.356;2024-03-06T05:56:42;98188.25;;;8.16;74.80
82746;BME280;72484;50.004;14.356;2024-03-06T06:00:03;98193.33;;;8.16;74.96
82746;BME280;72484;50.004;14.356;2024-03-06T06:04:26;98201.21;;;8.17;74.82
82746;BME280;72484;50.004;14.356;2024-03-06T06:07:45;98202.55;;;8.16;75.00
82746;BME280;72484;50.004;14.356;2024-03-06T06:11:45;98204.84;;;8.15;75.21
82746;BME280;72484;50.004;14.356;2024-03-06T06:15:45;98209.39;;;8.16;75.53
82746;BME280;72484;50.004;14.356;2024-03-06T06:19:45;98217.69;;;8.19;75.46
82746;BME280;72484;50.004;14.356;2024-03-06T06:23:44;98220.58;;;8.24;75.41
82746;BME280;72484;50.004;14.356;2024-03-06T06:27:44;98222.80;;;8.24;75.33
82746;BME280;72484;50.004;14.356;2024-03-06T06:31:43;98222.96;;;8.22;75.63
82746;BME280;72484;50.004;14.356;2024-03-06T06:36:00;98227.55;;;8.31;75.86
82746;BME280;72484;50.004;14.356;2024-03-06T06:39:37;98233.48;;;8.34;75.90
82746;BME280;72484;50.004;14.356;2024-03-06T06:42:58;98235.94;;;8.33;75.63
82746;BME280;72484;50.004;14.356;2024-03-06T06:46:58;98239.86;;;8.36;75.42
82746;BME280;72484;50.004;14.356;2024-03-06T06:50:58;98243.77;;;8.36;75.07
82746;BME280;72484;50.004;14.356;2024-03-06T06:55:00;98244.36;;;8.32;74.98
82746;BME280;72484;50.004;14.356;2024-03-06T06:58:59;98248.16;;;8.32;75.30
82746;BME280;72484;50.004;14.356;2024-03-06T07:02:59;98254.96;;;8.29;75.50
82746;BME280;72484;50.004;14.356;2024-03-06T07:07:00;98257.40;;;8.32;75.25
82746;BME280;72484;50.004;14.356;2024-03-06T07:11:00;98261.73;;;8.30;75.55
82746;BME280;72484;50.004;14.356;2024-03-06T07:15:17;98266.81;;;8.28;75.10
82746;BME280;72484;50.004;14.356;2024-03-06T07:18:38;98269.21;;;8.19;75.51
82746;BME280;72484;50.004;14.356;2024-03-06T07:22:38;98275.45;;;8.16;75.53
82746;BME280;72484;50.004;14.356;2024-03-06T07:26:37;98278.73;;;8.17;75.74
82746;BME280;72484;50.004;14.356;2024-03-06T07:30:54;98282.45;;;8.25;76.30
82746;BME280;72484;50.004;14.356;2024-03-06T07:34:17;98286.44;;;8.26;75.97
82746;BME280;72484;50.004;14.356;2024-03-06T07:38:09;98287.25;;;8.27;76.40
82746;BME280;72484;50.004;14.356;2024-03-06T07:41:48;98289.72;;;8.28;76.71
82746;BME280;72484;50.004;14.356;2024-03-06T07:45:09;98289.22;;;8.33;76.67
82746;BME280;72484;50.004;14.356;2024-03-06T07:49:10;98291.98;;;8.41;77.14
82746;BME280;72484;50.004;14.356;2024-03-06T07:53:27;98294.13;;;8.52;76.81
82746;BME280;72484;50.004;14.356;2024-03-06T07:57:05;98305.31;;;8.58;77.05
82746;BME280;72484;50.004;14.356;2024-03-06T08:00:24;98309.48;;;8.62;77.32
82746;BME280;72484;50.004;14.356;2024-03-06T08:04:25;98313.39;;;8.64;77.04
82746;BME280;72484;50.004;14.356;2024-03-06T08:08:43;98317.48;;;8.68;76.93
82746;BME280;72484;50.004;14.356;2024-03-06T08:12:20;98319.15;;;8.69;76.59
82746;BME280;72484;50.004;14.356;2024-03-06T08:15:59;98322.52;;;8.73;76.24
82746;BME280;72484;50.004;14.356;2024-03-06T08:19:39;98322.71;;;8.78;75.73
82746;BME280;72484;50.004;14.356;2024-03-06T08:22:57;98328.06;;;8.80;75.03
82746;BME280;72484;50.004;14.356;2024-03-06T08:26:57;98331.09;;;8.82;74.81
82746;BME280;72484;50.004;14.356;2024-03-06T08:30:59;98332.48;;;8.88;74.77
82746;BME280;72484;50.004;14.356;2024-03-06T08:35:17;98336.98;;;8.92;74.04
82746;BME280;72484;50.004;14.356;2024-03-06T08:38:37;98335.96;;;8.95;74.32
82746;BME280;72484;50.004;14.356;2024-03-06T08:42:55;98332.98;;;9.04;73.83
82746;BME280;72484;50.004;14.356;2024-03-06T08:46:16;98333.24;;;9.07;73.83
82746;BME280;72484;50.004;14.356;2024-03-06T08:50:33;98338.95;;;9.20;73.48
82746;BME280;72484;50.004;14.356;2024-03-06T08:54:10;98330.08;;;9.27;73.56
82746;BME280;72484;50.004;14.356;2024-03-06T08:57:48;98332.47;;;9.38;73.42
82746;BME280;72484;50.004;14.356;2024-03-06T09:01:08;98338.30;;;9.50;72.38
82746;BME280;72484;50.004;14.356;2024-03-06T09:05:25;98333.50;;;9.65;71.53
82746;BME280;72484;50.004;14.356;2024-03-06T09:09:03;98333.45;;;9.77;71.38
82746;BME280;72484;50.004;14.356;2024-03-06T09:12:41;98328.55;;;9.92;70.69
82746;BME280;72484;50.004;14.356;2024-03-06T09:16:19;98327.22;;;9.97;70.16
82746;BME280;72484;50.004;14.356;2024-03-06T09:19:40;98325.71;;;9.73;68.72
82746;BME280;72484;50.004;14.356;2024-03-06T09:23:41;98332.60;;;9.60;69.94
82746;BME280;72484;50.004;14.356;2024-03-06T09:27:40;98332.68;;;9.60;69.67
82746;BME280;72484;50.004;14.356;2024-03-06T09:31:57;98334.02;;;9.54;70.17
82746;BME280;72484;50.004;14.356;2024-03-06T09:35:35;98333.62;;;9.55;70.23
82746;BME280;72484;50.004;14.356;2024-03-06T09:38:56;98334.52;;;9.61;69.88
82746;BME280;72484;50.004;14.356;2024-03-06T09:42:57;98333.09;;;9.60;69.86
82746;BME280;72484;50.004;14.356;2024-03-06T09:47:15;98337.99;;;9.76;69.83
82746;BME280;72484;50.004;14.356;2024-03-06T09:50:36;98344.42;;;9.76;69.05
82746;BME280;72484;50.004;14.356;2024-03-06T09:54:57;98347.67;;;9.67;68.20
82746;BME280;72484;50.004;14.356;2024-03-06T09:58:16;98349.64;;;9.57;68.46
82746;BME280;72484;50.004;14.356;2024-03-06T10:02:39;98344.36;;;9.51;68.29
82746;BME280;72484;50.004;14.356;2024-03-06T10:05:53;98344.85;;;9.54;68.79
82746;BME280;72484;50.004;14.356;2024-03-06T10:09:53;98347.89;;;9.76;68.93
82746;BME280;72484;50.004;14.356;2024-03-06T10:14:10;98341.73;;;10.02;67.55
82746;BME280;72484;50.004;14.356;2024-03-06T10:17:47;98344.34;;;10.18;67.40
82746;BME280;72484;50.004;14.356;2024-03-06T10:21:32;98350.04;;;10.36;67.46
82746;BME280;72484;50.004;14.356;2024-03-06T10:25:06;98340.70;;;10.48;67.12
82746;BME280;72484;50.004;14.356;2024-03-06T10:28:24;98345.49;;;10.57;66.48
82746;BME280;72484;50.004;14.356;2024-03-06T10:32:25;98343.72;;;10.64;65.37
82746;BME280;72484;50.004;14.356;2024-03-06T10:36:27;98344.52;;;10.64;64.87
82746;BME280;72484;50.004;14.356;2024-03-06T10:40:51;98344.67;;;10.54;62.76
82746;BME280;72484;50.004;14.356;2024-03-06T10:44:12;98348.50;;;10.25;62.64
82746;BME280;72484;50.004;14.356;2024-03-06T10:48:17;98349.62;;;9.99;64.66
82746;BME280;72484;50.004;14.356;2024-03-06T10:52:34;98349.27;;;9.91;65.92
82746;BME280;72484;50.004;14.356;2024-03-06T10:56:13;98349.61;;;9.96;65.65
82746;BME280;72484;50.004;14.356;2024-03-06T10:59:49;98345.55;;;9.95;64.41
82746;BME280;72484;50.004;14.356;2024-03-06T11:03:10;98349.91;;;9.88;64.81
82746;BME280;72484;50.004;14.356;2024-03-06T11:07:27;98348.34;;;10.00;64.65
82746;BME280;72484;50.004;14.356;2024-03-06T11:10:49;98343.46;;;9.93;64.46
82746;BME280;72484;50.004;14.356;2024-03-06T11:15:14;98338.95;;;10.03;64.82
82746;BME280;72484;50.004;14.356;2024-03-06T11:18:44;98336.13;;;10.22;65.28
82746;BME280;72484;50.004;14.356;2024-03-06T11:23:04;98339.27;;;10.40;62.84
82746;BME280;72484;50.004;14.356;2024-03-06T11:27:27;98332.16;;;10.40;63.27
82746;BME280;72484;50.004;14.356;2024-03-06T11:31:04;98336.63;;;10.48;62.01
82746;BME280;72484;50.004;14.356;2024-03-06T11:34:24;98334.23;;;10.58;61.62
82746;BME280;72484;50.004;14.356;2024-03-06T11:38:23;98330.72;;;10.68;61.54
82746;BME280;72484;50.004;14.356;2024-03-06T11:42:34;98330.64;;;10.67;60.53
82746;BME280;72484;50.004;14.356;2024-03-06T11:46:44;98331.60;;;10.47;59.37
82746;BME280;72484;50.004;14.356;2024-03-06T11:50:42;98327.61;;;10.38;61.18
82746;BME280;72484;50.004;14.356;2024-03-06T11:54:41;98326.09;;;10.41;61.01
82746;BME280;72484;50.004;14.356;2024-03-06T11:58:40;98331.60;;;10.40;61.11
82746;BME280;72484;50.004;14.356;2024-03-06T12:02:56;98323.54;;;10.53;61.99
82746;BME280;72484;50.004;14.356;2024-03-06T12:06:35;98323.39;;;10.59;61.70
82746;BME280;72484;50.004;14.356;2024-03-06T12:09:57;98319.23;;;10.53;61.36
82746;BME280;72484;50.004;14.356;2024-03-06T12:13:57;98321.95;;;10.47;61.15
82746;BME280;72484;50.004;14.356;2024-03-06T12:18:16;98318.75;;;10.28;61.64
82746;BME280;72484;50.004;14.356;2024-03-06T12:21:51;98318.50;;;10.32;62.30
82746;BME280;72484;50.004;14.356;2024-03-06T12:25:11;98320.42;;;10.38;62.23
82746;BME280;72484;50.004;14.356;2024-03-06T12:29:35;98321.62;;;10.49;61.49
82746;BME280;72484;50.004;14.356;2024-03-06T12:33:17;98314.37;;;10.55;60.96
82746;BME280;72484;50.004;14.356;2024-03-06T12:36:52;98318.69;;;10.46;60.33
82746;BME280;72484;50.004;14.356;2024-03-06T12:40:12;98315.71;;;10.23;60.70
82746;BME280;72484;50.004;14.356;2024-03-06T12:44:12;98314.59;;;10.19;60.97
82746;BME280;72484;50.004;14.356;2024-03-06T12:48:29;98306.21;;;10.22;61.14
82746;BME280;72484;50.004;14.356;2024-03-06T12:52:07;98310.22;;;10.23;61.18
82746;BME280;72484;50.004;14.356;2024-03-06T12:55:45;98312.00;;;10.11;60.35
82746;BME280;72484;50.004;14.356;2024-03-06T12:59:23;98308.42;;;10.12;61.50
82746;BME280;72484;50.004;14.356;2024-03-06T13:02:44;98312.55;;;10.16;60.56
82746;BME280;72484;50.004;14.356;2024-03-06T13:06:43;98306.79;;;10.24;59.96
82746;BME280;72484;50.004;14.356;2024-03-06T13:11:02;98300.00;;;10.40;59.23
82746;BME280;72484;50.004;14.356;2024-03-06T13:14:38;98299.29;;;10.54;58.16
82746;BME280;72484;50.004;14.356;2024-03-06T13:18:16;98294.64;;;10.61;57.85
82746;BME280;72484;50.004;14.356;2024-03-06T13:21:53;98294.88;;;10.74;57.71
82746;BME280;72484;50.004;14.356;2024-03-06T13:25:14;98287.82;;;10.87;57.41
82746;BME280;72484;50.004;14.356;2024-03-06T13:29:13;98292.52;;;10.95;56.91
82746;BME280;72484;50.004;14.356;2024-03-06T13:33:29;98289.70;;;10.97;56.56
82746;BME280;72484;50.004;14.356;2024-03-06T13:37:06;98289.33;;;10.89;56.59
82746;BME280;72484;50.004;14.356;2024-03-06T13:40:44;98285.59;;;10.80;56.79
82746;BME280;72484;50.004;14.356;2024-03-06T13:44:21;98291.05;;;10.70;56.84
82746;BME280;72484;50.004;14.356;2024-03-06T13:47:59;98289.38;;;10.60;56.61
82746;BME280;72484;50.004;14.356;2024-03-06T13:51:20;98294.65;;;10.53;56.24
82746;BME280;72484;50.004;14.356;2024-03-06T13:55:35;98289.69;;;10.53;55.38
82746;BME280;72484;50.004;14.356;2024-03-06T13:59:13;98285.50;;;10.54;56.32
82746;BME280;72484;50.004;14.356;2024-03-06T14:02:51;98286.83;;;10.51;55.83
82746;BME280;72484;50.004;14.356;2024-03-06T14:06:29;98283.08;;;10.46;56.46
82746;BME280;72484;50.004;14.356;2024-03-06T14:10:08;98290.91;;;10.40;55.71
82746;BME280;72484;50.004;14.356;2024-03-06T14:13:44;98286.75;;;10.39;56.62
82746;BME280;72484;50.004;14.356;2024-03-06T14:17:05;98289.96;;;10.41;57.08
82746;BME280;72484;50.004;14.356;2024-03-06T14:21:20;98289.63;;;10.41;57.87
82746;BME280;72484;50.004;14.356;2024-03-06T14:24:40;98291.16;;;10.41;57.94
82746;BME280;72484;50.004;14.356;2024-03-06T14:28:57;98290.27;;;10.32;57.66
82746;BME280;72484;50.004;14.356;2024-03-06T14:32:34;98288.12;;;10.28;58.32
82746;BME280;72484;50.004;14.356;2024-03-06T14:35:54;98290.11;;;10.31;57.67
82746;BME280;72484;50.004;14.356;2024-03-06T14:40:11;98291.14;;;10.29;56.71
82746;BME280;72484;50.004;14.356;2024-03-06T14:43:30;98290.84;;;10.26;56.93
82746;BME280;72484;50.004;14.356;2024-03-06T14:47:31;98285.48;;;10.37;56.82
82746;BME280;72484;50.004;14.356;2024-03-06T14:51:46;98288.19;;;10.42;56.43
82746;BME280;72484;50.004;14.356;2024-03-06T14:55:08;98285.41;;;10.45;55.39
82746;BME280;72484;50.004;14.356;2024-03-06T14:59:23;98289.70;;;10.48;54.89
82746;BME280;72484;50.004;14.356;2024-03-06T15:02:44;98291.45;;;10.44;53.90
82746;BME280;72484;50.004;14.356;2024-03-06T15:06:44;98287.95;;;10.39;53.78
82746;BME280;72484;50.004;14.356;2024-03-06T15:10:43;98292.11;;;10.35;52.99
82746;BME280;72484;50.004;14.356;2024-03-06T15:14:41;98291.07;;;10.30;52.64
82746;BME280;72484;50.004;14.356;2024-03-06T15:18:40;98294.58;;;10.24;51.35
82746;BME280;72484;50.004;14.356;2024-03-06T15:22:55;98295.27;;;10.20;50.45
82746;BME280;72484;50.004;14.356;2024-03-06T15:26:33;98302.52;;;10.15;50.50
82746;BME280;72484;50.004;14.356;2024-03-06T15:30:12;98307.61;;;10.04;47.94
82746;BME280;72484;50.004;14.356;2024-03-06T15:33:50;98310.99;;;9.76;47.13
82746;BME280;72484;50.004;14.356;2024-03-06T15:37:27;98316.05;;;9.66;48.11
82746;BME280;72484;50.004;14.356;2024-03-06T15:40:47;98313.11;;;9.67;48.40
82746;BME280;72484;50.004;14.356;2024-03-06T15:44:48;98319.99;;;9.51;48.84
82746;BME280;72484;50.004;14.356;2024-03-06T15:48:49;98321.20;;;9.37;50.86
82746;BME280;72484;50.004;14.356;2024-03-06T15:52:48;98321.18;;;9.33;52.21
82746;BME280;72484;50.004;14.356;2024-03-06T15:57:07;98330.35;;;9.32;52.55
82746;BME280;72484;50.004;14.356;2024-03-06T16:00:26;98329.11;;;9.27;52.79
82746;BME280;72484;50.004;14.356;2024-03-06T16:04:44;98332.46;;;9.27;53.02
82746;BME280;72484;50.004;14.356;2024-03-06T16:08:20;98336.67;;;9.23;52.82
82746;BME280;72484;50.004;14.356;2024-03-06T16:11:41;98339.62;;;9.09;52.55
82746;BME280;72484;50.004;14.356;2024-03-06T16:15:58;98349.20;;;9.00;52.75
82746;BME280;72484;50.004;14.356;2024-03-06T16:19:17;98351.20;;;8.57;52.96
82746;BME280;72484;50.004;14.356;2024-03-06T16:23:33;98354.34;;;8.44;54.32
82746;BME280;72484;50.004;14.356;2024-03-06T16:26:54;98364.48;;;8.39;53.87
82746;BME280;72484;50.004;14.356;2024-03-06T16:31:11;98373.13;;;8.28;52.55
82746;BME280;72484;50.004;14.356;2024-03-06T16:34:33;98375.86;;;8.17;52.57
82746;BME280;72484;50.004;14.356;2024-03-06T16:38:50;98376.38;;;7.97;52.43
82746;BME280;72484;50.004;14.356;2024-03-06T16:42:27;98377.70;;;7.86;52.73
82746;BME280;72484;50.004;14.356;2024-03-06T16:45:48;98382.50;;;7.76;53.65
82746;BME280;72484;50.004;14.356;2024-03-06T16:49:46;98388.44;;;7.68;53.81
82746;BME280;72484;50.004;14.356;2024-03-06T16:53:46;98395.61;;;7.56;54.56
82746;BME280;72484;50.004;14.356;2024-03-06T16:58:05;98402.77;;;7.39;55.31
82746;BME280;72484;50.004;14.356;2024-03-06T17:01:42;98403.54;;;7.32;56.32
82746;BME280;72484;50.004;14.356;2024-03-06T17:05:02;98410.52;;;7.31;56.59
82746;BME280;72484;50.004;14.356;2024-03-06T17:09:01;98420.23;;;7.21;57.39
82746;BME280;72484;50.004;14.356;2024-03-06T17:13:01;98430.90;;;6.92;58.45
82746;BME280;72484;50.004;14.356;2024-03-06T17:17:00;98438.52;;;6.63;59.99
82746;BME280;72484;50.004;14.356;2024-03-06T17:21:00;98439.00;;;6.41;61.13
82746;BME280;72484;50.004;14.356;2024-03-06T17:24:59;98439.58;;;6.24;61.45
82746;BME280;72484;50.004;14.356;2024-03-06T17:28:57;98442.86;;;6.14;62.16
82746;BME280;72484;50.004;14.356;2024-03-06T17:33:14;98446.08;;;6.04;62.74
82746;BME280;72484;50.004;14.356;2024-03-06T17:36:52;98451.51;;;5.97;63.02
82746;BME280;72484;50.004;14.356;2024-03-06T17:40:29;98460.23;;;5.94;62.94
82746;BME280;72484;50.004;14.356;2024-03-06T17:44:07;98463.02;;;5.81;63.07
82746;BME280;72484;50.004;14.356;2024-03-06T17:47:44;98464.05;;;5.77;63.27
82746;BME280;72484;50.004;14.356;2024-03-06T17:51:05;98466.70;;;5.75;63.38
82746;BME280;72484;50.004;14.356;2024-03-06T17:55:21;98466.88;;;5.72;63.29
82746;BME280;72484;50.004;14.356;2024-03-06T17:58:43;98463.80;;;5.58;63.65
82746;BME280;72484;50.004;14.356;2024-03-06T18:03:01;98462.30;;;5.54;63.75
82746;BME280;72484;50.004;14.356;2024-03-06T18:06:40;98466.19;;;5.55;63.83
82746;BME280;72484;50.004;14.356;2024-03-06T18:10:18;98469.02;;;5.42;64.21
82746;BME280;72484;50.004;14.356;2024-03-06T18:13:54;98472.09;;;5.35;64.07
82746;BME280;72484;50.004;14.356;2024-03-06T18:17:15;98474.95;;;5.22;64.58
82746;BME280;72484;50.004;14.356;2024-03-06T18:21:34;98475.98;;;5.16;64.95
82746;BME280;72484;50.004;14.356;2024-03-06T18:25:12;98474.29;;;5.10;64.93
82746;BME280;72484;50.004;14.356;2024-03-06T18:28:49;98480.77;;;5.10;64.82
82746;BME280;72484;50.004;14.356;2024-03-06T18:32:25;98480.37;;;5.10;64.86
82746;BME280;72484;50.004;14.356;2024-03-06T18:36:06;98485.62;;;5.11;64.91
82746;BME280;72484;50.004;14.356;2024-03-06T18:39:24;98487.55;;;5.05;64.95
82746;BME280;72484;50.004;14.356;2024-03-06T18:43:42;98491.92;;;4.97;65.17
82746;BME280;72484;50.004;14.356;2024-03-06T18:47:00;98492.38;;;4.93;65.45
82746;BME280;72484;50.004;14.356;2024-03-06T18:50:58;98494.58;;;4.89;65.22
82746;BME280;72484;50.004;14.356;2024-03-06T18:55:14;98495.67;;;4.85;65.28
82746;BME280;72484;50.004;14.356;2024-03-06T18:58:52;98502.27;;;4.83;65.46
82746;BME280;72484;50.004;14.356;2024-03-06T19:02:30;98501.17;;;4.81;65.62
82746;BME280;72484;50.004;14.356;2024-03-06T19:06:11;98503.61;;;4.77;65.58
82746;BME280;72484;50.004;14.356;2024-03-06T19:09:45;98509.90;;;4.76;65.63
82746;BME280;72484;50.004;14.356;2024-03-06T19:13:23;98511.50;;;4.76;65.74
82746;BME280;72484;50.004;14.356;2024-03-06T19:16:44;98509.92;;;4.74;65.79
82746;BME280;72484;50.004;14.356;2024-03-06T19:20:44;98511.70;;;4.68;66.00
82746;BME280;72484;50.004;14.356;2024-03-06T19:24:44;98516.25;;;4.71;66.16
82746;BME280;72484;50.004;14.356;2024-03-06T19:29:02;98520.41;;;4.76;66.11
82746;BME280;72484;50.004;14.356;2024-03-06T19:32:22;98523.17;;;4.78;66.19
82746;BME280;72484;50.004;14.356;2024-03-06T19:36:44;98527.66;;;4.81;66.17
82746;BME280;72484;50.004;14.356;2024-03-06T19:40:02;98528.67;;;4.77;66.26
82746;BME280;72484;50.004;14.356;2024-03-06T19:44:21;98525.55;;;4.75;66.46
82746;BME280;72484;50.004;14.356;2024-03-06T19:47:59;98526.25;;;4.69;66.69
82746;BME280;72484;50.004;14.356;2024-03-06T19:51:19;98530.42;;;4.56;67.22
82746;BME280;72484;50.004;14.356;2024-03-06T19:55:38;98524.94;;;4.55;67.63
82746;BME280;72484;50.004;14.356;2024-03-06T19:58:58;98528.33;;;4.61;67.66
82746;BME280;72484;50.004;14.356;2024-03-06T20:03:01;98532.33;;;4.59;67.81
82746;BME280;72484;50.004;14.356;2024-03-06T20:07:16;98531.64;;;4.63;67.90